Time;durP1;ratioP1;P1;durP2;ratioP2;P2;SDS_P1;SDS_P2;PMS_P1;PMS_P2;Temp;Humidity;BMP_temperature;BMP_pressure;BME280_temperature;BME280_humidity;BME280_pressure;Samples;Min_cycle;Max_cycle;Signal;HPM_P1;HPM_P2
2023/06/15 00:00:19;;;;;;;;;;;13.50;71.40;;;;;;4957466;28;20267;-75
2023/06/15 00:02:46;;;;;;;;;;;13.40;72.20;;;;;;4958454;28;19941;-75
2023/06/15 00:05:13;;;;;;;;;;;13.30;72.40;;;;;;4958710;28;19934;-75
2023/06/15 00:07:40;;;;;;;;;;;13.20;72.50;;;;;;4958401;28;20378;-76
2023/06/15 00:10:08;;;;;;;;;;;13.10;73.10;;;;;;4939987;28;19937;-76
2023/06/15 00:12:34;;;;;;;;;;;13.10;73.00;;;;;;4956716;28;20025;-76
2023/06/15 00:15:02;;;;;;;;;;;13.10;73.20;;;;;;4938569;28;20686;-76
2023/06/15 00:17:31;;;;;;;;;;;13.10;73.50;;;;;;4939651;28;20302;-76
2023/06/15 00:20:00;;;;;;;;;;;13.00;73.20;;;;;;4939815;28;19934;-75
2023/06/15 00:22:28;;;;;;;;;;;13.00;73.30;;;;;;4956027;28;20438;-76
2023/06/15 00:24:55;;;;;;;;;;;12.90;73.30;;;;;;4957990;28;19934;-75
2023/06/15 00:27:22;;;;;;;;;;;12.90;73.70;;;;;;4957842;28;19941;-76
2023/06/15 00:29:49;;;;;;;;;;;12.80;73.70;;;;;;4957150;28;19977;-76
2023/06/15 00:32:16;;;;;;;;;;;12.70;74.10;;;;;;4957181;28;20026;-75
2023/06/15 00:34:42;;;;;;;;;;;12.60;74.60;;;;;;4957703;28;19934;-75
2023/06/15 00:37:09;;;;;;;;;;;12.60;74.90;;;;;;4957394;28;19934;-75
2023/06/15 00:39:36;;;;;;;;;;;12.50;75.10;;;;;;4955134;28;19934;-75
2023/06/15 00:42:02;;;;;;;;;;;12.50;75.20;;;;;;4957400;28;19941;-75
2023/06/15 00:47:58;;;;;;;;;;;12.40;76.40;;;;;;4956246;28;19969;-75
2023/06/15 00:50:25;;;;;;;;;;;12.50;76.30;;;;;;4957508;28;19977;-75
2023/06/15 00:52:52;;;;;;;;;;;12.50;76.20;;;;;;4958132;28;20060;-75
2023/06/15 00:55:23;;;;;;;;;;;12.50;75.80;;;;;;4956849;28;20015;-75
2023/06/15 01:01:32;;;;;;;;;;;12.40;75.60;;;;;;4902776;28;19931;-75
2023/06/15 01:03:59;;;;;;;;;;;12.40;76.50;;;;;;4956793;28;19937;-75
2023/06/15 01:06:31;;;;;;;;;;;12.40;76.70;;;;;;4956077;28;19934;-75
2023/06/15 01:09:01;;;;;;;;;;;12.30;76.50;;;;;;4954579;28;20538;-75
2023/06/15 01:11:31;;;;;;;;;;;12.30;76.70;;;;;;4956892;28;20056;-75
2023/06/15 01:13:59;;;;;;;;;;;12.20;76.50;;;;;;4935592;28;19941;-75
2023/06/15 01:16:37;;;;;;;;;;;12.10;77.00;;;;;;4956069;28;20000;-75
2023/06/15 01:19:09;;;;;;;;;;;12.00;77.70;;;;;;4956598;28;20017;-75
2023/06/15 01:21:37;;;;;;;;;;;12.00;77.50;;;;;;4956419;28;20887;-75
2023/06/15 01:24:13;;;;;;;;;;;12.00;77.60;;;;;;4954358;28;20026;-76
2023/06/15 01:26:41;;;;;;;;;;;12.10;78.50;;;;;;4954090;28;19973;-75
2023/06/15 01:29:10;;;;;;;;;;;12.00;78.10;;;;;;4934460;28;20421;-75
2023/06/15 01:31:37;;;;;;;;;;;11.90;77.50;;;;;;4955391;28;19956;-75
2023/06/15 01:34:05;;;;;;;;;;;11.90;77.70;;;;;;4956642;28;19993;-75
2023/06/15 01:36:31;;;;;;;;;;;11.80;77.50;;;;;;4954402;28;19934;-76
2023/06/15 01:38:58;;;;;;;;;;;11.70;77.90;;;;;;4956258;28;20188;-76
2023/06/15 01:41:26;;;;;;;;;;;11.70;78.10;;;;;;4956655;28;20408;-76
2023/06/15 01:43:54;;;;;;;;;;;11.60;78.00;;;;;;4955087;28;20389;-76
2023/06/15 01:46:22;;;;;;;;;;;11.50;78.80;;;;;;4956380;28;20272;-76
2023/06/15 01:48:49;;;;;;;;;;;11.40;79.20;;;;;;4955764;28;19934;-76
2023/06/15 01:51:16;;;;;;;;;;;11.40;79.10;;;;;;4956047;28;19981;-76
2023/06/15 01:53:43;;;;;;;;;;;11.40;79.60;;;;;;4938706;28;19934;-76
2023/06/15 01:56:10;;;;;;;;;;;11.30;80.30;;;;;;4952435;28;19940;-76
2023/06/15 01:58:37;;;;;;;;;;;11.30;80.70;;;;;;4955604;28;19985;-76
2023/06/15 02:01:03;;;;;;;;;;;11.30;80.60;;;;;;4955432;28;19934;-76
2023/06/15 02:03:31;;;;;;;;;;;11.20;80.70;;;;;;4953955;28;20339;-75
2023/06/15 02:05:58;;;;;;;;;;;11.30;81.40;;;;;;4955460;28;19981;-75
2023/06/15 02:08:25;;;;;;;;;;;11.30;81.20;;;;;;4955608;28;20172;-75
2023/06/15 02:10:51;;;;;;;;;;;11.30;81.70;;;;;;4934324;28;19934;-76
2023/06/15 02:13:18;;;;;;;;;;;11.40;80.80;;;;;;4955478;28;19935;-76
2023/06/15 02:15:45;;;;;;;;;;;11.40;81.20;;;;;;4955274;28;19934;-76
2023/06/15 02:18:15;;;;;;;;;;;11.40;81.20;;;;;;4937346;28;19941;-76
2023/06/15 02:20:42;;;;;;;;;;;11.30;80.80;;;;;;4954912;28;19934;-75
2023/06/15 02:23:10;;;;;;;;;;;11.30;81.10;;;;;;4954987;28;19934;-76
2023/06/15 02:25:37;;;;;;;;;;;11.30;81.40;;;;;;4951393;28;19941;-76
2023/06/15 02:28:16;;;;;;;;;;;11.40;81.50;;;;;;4935759;28;19941;-76
2023/06/15 02:31:10;;;;;;;;;;;11.40;81.20;;;;;;4955275;28;20577;-76
2023/06/15 02:33:38;;;;;;;;;;;11.30;80.80;;;;;;4954538;28;19934;-75
2023/06/15 02:36:06;;;;;;;;;;;11.30;82.10;;;;;;4938006;28;19941;-75
2023/06/15 02:38:32;;;;;;;;;;;11.30;81.10;;;;;;4955265;28;20020;-75
2023/06/15 02:40:59;;;;;;;;;;;11.20;80.30;;;;;;4955558;28;19934;-75
2023/06/15 02:43:26;;;;;;;;;;;11.20;80.60;;;;;;4936397;28;20745;-75
2023/06/15 02:45:53;;;;;;;;;;;11.20;80.40;;;;;;4951485;28;19973;-75
2023/06/15 02:48:20;;;;;;;;;;;11.20;81.20;;;;;;4955026;28;20056;-75
2023/06/15 02:50:46;;;;;;;;;;;11.20;81.90;;;;;;4937505;28;19934;-75
2023/06/15 02:53:14;;;;;;;;;;;11.20;81.00;;;;;;4953534;28;19985;-75
2023/06/15 02:55:42;;;;;;;;;;;11.10;81.60;;;;;;4954368;28;20335;-75
2023/06/15 02:58:08;;;;;;;;;;;11.20;82.00;;;;;;4937660;28;19933;-75
2023/06/15 03:00:36;;;;;;;;;;;11.20;81.80;;;;;;4955017;28;19934;-76
2023/06/15 03:03:03;;;;;;;;;;;11.20;81.70;;;;;;4954637;28;19934;-75
2023/06/15 03:05:30;;;;;;;;;;;11.20;81.60;;;;;;4935431;28;19964;-75
2023/06/15 03:07:57;;;;;;;;;;;11.20;82.10;;;;;;4954811;28;19934;-75
2023/06/15 03:10:24;;;;;;;;;;;11.20;81.80;;;;;;4954630;28;19930;-75
2023/06/15 03:12:51;;;;;;;;;;;11.20;81.70;;;;;;4953987;28;19934;-75
2023/06/15 03:15:18;;;;;;;;;;;11.20;81.70;;;;;;4953980;28;19965;-76
2023/06/15 03:17:45;;;;;;;;;;;11.20;81.60;;;;;;4950044;28;19956;-76
2023/06/15 03:20:12;;;;;;;;;;;11.20;81.00;;;;;;4954924;28;20395;-75
2023/06/15 03:22:39;;;;;;;;;;;11.20;81.30;;;;;;4954602;28;20352;-76
2023/06/15 03:25:11;;;;;;;;;;;11.30;81.20;;;;;;4953083;28;20048;-76
2023/06/15 03:27:40;;;;;;;;;;;11.30;81.20;;;;;;4951549;28;20827;-75
2023/06/15 03:30:10;;;;;;;;;;;11.40;80.80;;;;;;4954993;28;19957;-75
2023/06/15 03:32:37;;;;;;;;;;;11.40;81.00;;;;;;4956878;28;20459;-75
2023/06/15 03:35:05;;;;;;;;;;;11.50;81.60;;;;;;4957503;28;20722;-75
2023/06/15 03:37:31;;;;;;;;;;;11.60;81.80;;;;;;4956037;28;19934;-75
2023/06/15 03:39:58;;;;;;;;;;;11.60;80.80;;;;;;4957962;28;20388;-75
2023/06/15 03:42:25;;;;;;;;;;;11.60;80.30;;;;;;4958291;28;20333;-76
2023/06/15 03:44:51;;;;;;;;;;;11.60;80.90;;;;;;4957728;28;19938;-75
2023/06/15 03:47:18;;;;;;;;;;;11.70;81.10;;;;;;4956844;28;20041;-75
2023/06/15 03:49:45;;;;;;;;;;;11.80;81.60;;;;;;4958149;28;20039;-75
2023/06/15 03:52:12;;;;;;;;;;;11.90;82.00;;;;;;4958593;28;20252;-76
2023/06/15 03:54:38;;;;;;;;;;;11.90;81.70;;;;;;4956685;28;20021;-75
2023/06/15 03:57:06;;;;;;;;;;;12.00;81.30;;;;;;4958074;28;20032;-75
2023/06/15 03:59:33;;;;;;;;;;;12.00;81.40;;;;;;4958558;28;19934;-75
2023/06/15 04:02:00;;;;;;;;;;;12.00;81.70;;;;;;4957936;28;20032;-75
2023/06/15 04:04:27;;;;;;;;;;;12.00;81.60;;;;;;4940251;28;20174;-76
2023/06/15 04:06:56;;;;;;;;;;;12.10;81.40;;;;;;4958091;28;20648;-75
2023/06/15 04:09:22;;;;;;;;;;;12.10;81.60;;;;;;4958050;28;19956;-75
2023/06/15 04:11:49;;;;;;;;;;;12.10;81.70;;;;;;4940286;28;20346;-75
2023/06/15 04:14:18;;;;;;;;;;;12.20;82.00;;;;;;4957134;28;19973;-75
2023/06/15 04:16:45;;;;;;;;;;;12.30;81.70;;;;;;4957749;28;20274;-76
2023/06/15 04:19:13;;;;;;;;;;;12.30;81.80;;;;;;4957155;28;20001;-76
2023/06/15 04:21:39;;;;;;;;;;;12.40;82.00;;;;;;4957786;28;19973;-75
2023/06/15 04:24:06;;;;;;;;;;;12.40;82.30;;;;;;4956367;28;21245;-76
2023/06/15 04:26:33;;;;;;;;;;;12.50;81.30;;;;;;4939033;28;20012;-76
2023/06/15 04:29:00;;;;;;;;;;;12.50;81.70;;;;;;4956765;28;20604;-75
2023/06/15 04:31:30;;;;;;;;;;;12.50;82.40;;;;;;4956296;28;19941;-76
2023/06/15 04:33:59;;;;;;;;;;;12.50;81.20;;;;;;4957943;28;19934;-76
2023/06/15 04:36:26;;;;;;;;;;;12.60;80.70;;;;;;4956225;28;19940;-76
2023/06/15 04:38:53;;;;;;;;;;;12.60;80.70;;;;;;4958712;28;19961;-76
2023/06/15 04:41:22;;;;;;;;;;;12.60;81.10;;;;;;4937450;28;20039;-76
2023/06/15 04:43:50;;;;;;;;;;;12.60;80.50;;;;;;4956152;28;19934;-76
2023/06/15 04:46:17;;;;;;;;;;;12.60;80.60;;;;;;4934879;28;20001;-76
2023/06/15 04:48:44;;;;;;;;;;;12.60;80.90;;;;;;4968475;28;19977;-78
2023/06/15 04:51:11;;;;;;;;;;;12.70;81.50;;;;;;4955645;28;19931;-77
2023/06/15 04:53:42;;;;;;;;;;;12.70;81.40;;;;;;4970159;28;19930;-77
2023/06/15 04:56:10;;;;;;;;;;;12.70;81.10;;;;;;4971333;28;20287;-79
2023/06/15 04:58:37;;;;;;;;;;;12.60;81.40;;;;;;4971378;28;19930;-78
2023/06/15 05:01:05;;;;;;;;;;;12.70;82.40;;;;;;4952961;28;20006;-77
2023/06/15 05:03:33;;;;;;;;;;;12.70;82.30;;;;;;4971343;28;20048;-81
2023/06/15 05:06:00;;;;;;;;;;;12.70;82.50;;;;;;4955664;28;19970;-81
2023/06/15 05:08:27;;;;;;;;;;;12.70;83.10;;;;;;4972950;28;20057;-78
2023/06/15 05:10:53;;;;;;;;;;;12.80;83.10;;;;;;4951101;28;19941;-80
2023/06/15 05:13:20;;;;;;;;;;;12.80;83.60;;;;;;4956980;28;20287;-79
2023/06/15 05:15:47;;;;;;;;;;;12.90;84.00;;;;;;4970365;28;20013;-79
2023/06/15 05:18:14;;;;;;;;;;;12.90;83.40;;;;;;4968711;28;19930;-79
2023/06/15 05:20:40;;;;;;;;;;;13.00;83.80;;;;;;4969293;28;19926;-79
2023/06/15 05:23:07;;;;;;;;;;;13.10;84.10;;;;;;4954025;28;19935;-80
2023/06/15 05:25:34;;;;;;;;;;;13.10;83.50;;;;;;4968676;28;19941;-77
2023/06/15 05:28:01;;;;;;;;;;;13.20;83.50;;;;;;4960982;28;19930;-78
2023/06/15 05:30:27;;;;;;;;;;;13.20;83.80;;;;;;4961888;28;19930;-78
2023/06/15 05:32:54;;;;;;;;;;;13.30;83.80;;;;;;4945812;28;20189;-78
2023/06/15 05:35:21;;;;;;;;;;;13.50;81.20;;;;;;4964153;28;19930;-78
2023/06/15 05:37:48;;;;;;;;;;;13.70;79.50;;;;;;4963752;28;19930;-81
2023/06/15 05:40:15;;;;;;;;;;;13.80;78.40;;;;;;4961769;28;19930;-79
2023/06/15 05:42:41;;;;;;;;;;;14.00;76.10;;;;;;4964019;28;19930;-77
2023/06/15 05:45:08;;;;;;;;;;;14.20;77.00;;;;;;4964100;28;20391;-78
2023/06/15 05:47:35;;;;;;;;;;;14.40;74.00;;;;;;4965782;28;20032;-78
2023/06/15 05:50:02;;;;;;;;;;;14.60;73.20;;;;;;4968166;28;20025;-79
2023/06/15 05:52:28;;;;;;;;;;;14.70;72.70;;;;;;4967373;28;19930;-78
2023/06/15 05:54:56;;;;;;;;;;;14.80;70.70;;;;;;4967769;28;19937;-78
2023/06/15 05:57:22;;;;;;;;;;;14.90;74.60;;;;;;4967447;28;20685;-79
2023/06/15 05:59:49;;;;;;;;;;;15.00;73.50;;;;;;4944963;28;20020;-78
2023/06/15 06:02:16;;;;;;;;;;;15.10;74.30;;;;;;4969051;28;19926;-79
2023/06/15 06:04:43;;;;;;;;;;;15.20;71.30;;;;;;4969903;28;20017;-78
2023/06/15 06:07:10;;;;;;;;;;;15.40;71.70;;;;;;4966147;28;20027;-79
2023/06/15 06:09:37;;;;;;;;;;;15.70;72.40;;;;;;4966532;28;20561;-79
2023/06/15 06:12:05;;;;;;;;;;;15.90;74.60;;;;;;4946041;28;19977;-78
2023/06/15 06:14:31;;;;;;;;;;;16.20;72.20;;;;;;4960405;28;19936;-79
2023/06/15 06:16:58;;;;;;;;;;;16.50;69.90;;;;;;4964780;28;20020;-78
2023/06/15 06:19:25;;;;;;;;;;;16.80;70.50;;;;;;4967754;28;20000;-78
2023/06/15 06:21:52;;;;;;;;;;;17.10;70.40;;;;;;4969160;28;19930;-79
2023/06/15 06:24:18;;;;;;;;;;;17.40;68.60;;;;;;4951598;28;19993;-78
2023/06/15 06:26:49;;;;;;;;;;;17.70;69.00;;;;;;4965501;28;19926;-78
2023/06/15 06:29:16;;;;;;;;;;;18.10;67.40;;;;;;4967060;28;19934;-79
2023/06/15 06:31:42;;;;;;;;;;;18.40;67.20;;;;;;4950986;28;19930;-78
2023/06/15 06:34:10;;;;;;;;;;;18.70;65.40;;;;;;4947740;28;20647;-80
2023/06/15 06:36:37;;;;;;;;;;;19.00;65.70;;;;;;4966567;28;19981;-79
2023/06/15 06:39:04;;;;;;;;;;;19.40;64.20;;;;;;4958684;28;19934;-79
2023/06/15 06:41:31;;;;;;;;;;;19.80;62.80;;;;;;4969433;28;19985;-78
2023/06/15 06:43:58;;;;;;;;;;;20.10;60.50;;;;;;4968943;28;20446;-79
2023/06/15 06:46:25;;;;;;;;;;;20.20;60.20;;;;;;4953401;28;19977;-78
2023/06/15 06:48:51;;;;;;;;;;;20.40;60.30;;;;;;4967078;28;19981;-79
2023/06/15 06:51:18;;;;;;;;;;;20.40;60.10;;;;;;4966589;28;19934;-79
2023/06/15 06:53:45;;;;;;;;;;;20.50;58.50;;;;;;4967692;28;20012;-79
2023/06/15 06:56:12;;;;;;;;;;;20.50;59.90;;;;;;4967929;28;20075;-79
2023/06/15 06:58:38;;;;;;;;;;;20.60;60.00;;;;;;4967295;28;20005;-79
2023/06/15 07:01:05;;;;;;;;;;;20.70;59.20;;;;;;4969375;28;19926;-79
2023/06/15 07:03:32;;;;;;;;;;;20.70;58.80;;;;;;4969130;28;20020;-80
2023/06/15 07:05:59;;;;;;;;;;;20.70;58.50;;;;;;4966932;28;19926;-78
2023/06/15 07:08:26;;;;;;;;;;;20.80;57.50;;;;;;4956465;28;19945;-79
2023/06/15 07:10:53;;;;;;;;;;;20.60;55.90;;;;;;4967691;28;19930;-79
2023/06/15 07:13:20;;;;;;;;;;;20.60;55.20;;;;;;4968689;28;19930;-80
2023/06/15 07:15:46;;;;;;;;;;;20.50;57.30;;;;;;4967884;28;19969;-73
2023/06/15 07:18:14;;;;;;;;;;;20.80;57.20;;;;;;4962609;28;20016;-74
2023/06/15 07:20:41;;;;;;;;;;;21.10;55.30;;;;;;4945707;28;19930;-73
2023/06/15 07:23:08;;;;;;;;;;;21.40;54.30;;;;;;4946791;28;20387;-73
2023/06/15 07:25:35;;;;;;;;;;;21.50;54.40;;;;;;4962003;28;19940;-73
2023/06/15 07:28:02;;;;;;;;;;;21.60;55.90;;;;;;4963604;28;19930;-74
2023/06/15 07:30:29;;;;;;;;;;;21.70;53.90;;;;;;4964015;28;19936;-73
2023/06/15 07:32:56;;;;;;;;;;;22.00;54.30;;;;;;4963162;28;19966;-72
2023/06/15 07:35:23;;;;;;;;;;;22.10;52.70;;;;;;4947674;28;19930;-73
2023/06/15 07:37:50;;;;;;;;;;;22.20;52.80;;;;;;4959817;28;19984;-73
2023/06/15 07:40:18;;;;;;;;;;;22.50;52.80;;;;;;4947289;28;19984;-72
2023/06/15 07:42:45;;;;;;;;;;;22.80;51.90;;;;;;4962024;28;19953;-73
2023/06/15 07:45:12;;;;;;;;;;;23.20;51.70;;;;;;4947766;28;19938;-73
2023/06/15 07:47:41;;;;;;;;;;;23.60;51.00;;;;;;4962858;28;19930;-73
2023/06/15 07:50:08;;;;;;;;;;;24.00;48.70;;;;;;4964272;28;20377;-73
2023/06/15 07:52:35;;;;;;;;;;;24.10;48.70;;;;;;4962884;28;20336;-73
2023/06/15 07:55:01;;;;;;;;;;;24.30;48.90;;;;;;4963201;28;20012;-73
2023/06/15 07:57:28;;;;;;;;;;;24.80;47.60;;;;;;4963214;28;19934;-73
2023/06/15 07:59:55;;;;;;;;;;;24.80;47.60;;;;;;4965144;28;19977;-73
2023/06/15 08:02:22;;;;;;;;;;;25.20;47.40;;;;;;4962404;28;20569;-74
2023/06/15 08:04:48;;;;;;;;;;;25.60;45.30;;;;;;4962983;28;20040;-73
2023/06/15 08:07:15;;;;;;;;;;;26.10;45.50;;;;;;4962446;28;19930;-74
2023/06/15 08:09:42;;;;;;;;;;;25.80;42.50;;;;;;4962002;28;19936;-73
2023/06/15 08:12:09;;;;;;;;;;;25.60;43.80;;;;;;4955895;28;19930;-74
2023/06/15 08:14:36;;;;;;;;;;;25.50;43.60;;;;;;4962509;28;19930;-71
2023/06/15 08:17:03;;;;;;;;;;;25.20;43.80;;;;;;4961368;28;19952;-71
2023/06/15 08:19:30;;;;;;;;;;;24.90;43.20;;;;;;4965858;28;19930;-72
2023/06/15 08:21:57;;;;;;;;;;;25.00;44.30;;;;;;4951054;28;20395;-72
2023/06/15 08:24:23;;;;;;;;;;;25.50;42.40;;;;;;4951189;28;19930;-72
2023/06/15 08:26:54;;;;;;;;;;;25.70;40.80;;;;;;4965198;28;19934;-72
2023/06/15 08:29:21;;;;;;;;;;;25.90;39.50;;;;;;4950447;28;20618;-72
2023/06/15 08:31:51;;;;;;;;;;;25.80;39.20;;;;;;4967243;28;19937;-72
2023/06/15 08:34:18;;;;;;;;;;;25.70;40.50;;;;;;4966968;28;20450;-72
2023/06/15 08:36:45;;;;;;;;;;;25.90;40.30;;;;;;4967907;28;20540;-72
2023/06/15 08:39:12;;;;;;;;;;;26.20;39.50;;;;;;4950049;28;19930;-72
2023/06/15 08:41:39;;;;;;;;;;;26.00;38.80;;;;;;4954070;28;19927;-72
2023/06/15 08:44:06;;;;;;;;;;;26.30;41.20;;;;;;4965833;28;19938;-72
2023/06/15 08:46:33;;;;;;;;;;;26.80;40.40;;;;;;4966202;28;20004;-72
2023/06/15 08:49:02;;;;;;;;;;;27.20;38.40;;;;;;4963083;28;19968;-72
2023/06/15 08:51:29;;;;;;;;;;;27.50;38.20;;;;;;4948450;28;19960;-72
2023/06/15 08:53:56;;;;;;;;;;;27.40;37.60;;;;;;4966446;28;19930;-72
2023/06/15 08:56:23;;;;;;;;;;;27.00;38.60;;;;;;4965632;28;20017;-72
2023/06/15 08:58:50;;;;;;;;;;;27.10;39.60;;;;;;4947244;28;19937;-72
2023/06/15 09:01:23;;;;;;;;;;;27.30;40.30;;;;;;4966554;28;19937;-72
2023/06/15 09:03:52;;;;;;;;;;;27.90;39.70;;;;;;4959937;28;20501;-72
2023/06/15 09:06:19;;;;;;;;;;;28.10;38.70;;;;;;4962444;28;20013;-72
2023/06/15 09:08:46;;;;;;;;;;;27.90;38.00;;;;;;4949970;28;20646;-72
2023/06/15 09:11:14;;;;;;;;;;;28.30;38.70;;;;;;4966489;28;20328;-73
2023/06/15 09:13:44;;;;;;;;;;;28.50;39.60;;;;;;4961359;28;20489;-73
2023/06/15 09:16:22;;;;;;;;;;;28.80;37.20;;;;;;4962882;28;19930;-73
2023/06/15 09:18:55;;;;;;;;;;;28.80;37.00;;;;;;4963371;28;19931;-72
2023/06/15 09:21:22;;;;;;;;;;;28.90;37.40;;;;;;4948464;28;19965;-72
2023/06/15 09:23:49;;;;;;;;;;;28.90;37.40;;;;;;4963920;28;19960;-72
2023/06/15 09:26:21;;;;;;;;;;;29.40;36.30;;;;;;4965451;28;19930;-72
2023/06/15 09:28:47;;;;;;;;;;;29.60;35.00;;;;;;4961657;28;19997;-72
2023/06/15 09:31:29;;;;;;;;;;;29.40;36.20;;;;;;4960968;28;19985;-73
2023/06/15 09:34:00;;;;;;;;;;;29.60;34.90;;;;;;4963092;28;20376;-72
2023/06/15 09:36:32;;;;;;;;;;;29.40;36.10;;;;;;4950989;28;20406;-72
2023/06/15 09:38:59;;;;;;;;;;;29.50;34.70;;;;;;4971188;28;20335;-71
2023/06/15 09:41:26;;;;;;;;;;;29.30;34.90;;;;;;4967942;28;20288;-72
2023/06/15 09:43:53;;;;;;;;;;;29.20;34.50;;;;;;4947884;28;19930;-72
2023/06/15 09:46:20;;;;;;;;;;;29.20;35.90;;;;;;4963922;28;20535;-72
2023/06/15 09:48:47;;;;;;;;;;;29.20;35.80;;;;;;4962547;28;20692;-72
2023/06/15 09:51:15;;;;;;;;;;;29.20;36.40;;;;;;4964960;28;19930;-73
2023/06/15 09:53:43;;;;;;;;;;;29.50;36.80;;;;;;4964240;28;19998;-72
2023/06/15 09:56:10;;;;;;;;;;;29.80;35.70;;;;;;4964944;28;19942;-72
2023/06/15 09:58:54;;;;;;;;;;;29.90;35.00;;;;;;4960229;28;20540;-72
2023/06/15 10:01:24;;;;;;;;;;;30.20;34.30;;;;;;4964735;28;19977;-72
2023/06/15 10:03:52;;;;;;;;;;;30.30;34.40;;;;;;4963944;28;19934;-72
2023/06/15 10:06:20;;;;;;;;;;;30.60;33.10;;;;;;4945466;28;20836;-72
2023/06/15 10:08:51;;;;;;;;;;;30.50;33.90;;;;;;4965557;28;19930;-72
2023/06/15 10:11:22;;;;;;;;;;;30.20;33.10;;;;;;4959527;28;19940;-72
2023/06/15 10:13:51;;;;;;;;;;;30.10;34.10;;;;;;4961600;28;19934;-72
2023/06/15 10:16:20;;;;;;;;;;;30.40;33.00;;;;;;4960960;28;19934;-73
2023/06/15 10:18:53;;;;;;;;;;;29.90;32.50;;;;;;4963650;28;19961;-72
2023/06/15 10:21:25;;;;;;;;;;;29.70;34.20;;;;;;4959187;28;19930;-72
2023/06/15 10:23:56;;;;;;;;;;;29.90;33.70;;;;;;4960684;28;20037;-72
2023/06/15 10:26:23;;;;;;;;;;;29.90;34.50;;;;;;4961179;28;19933;-78
2023/06/15 10:28:51;;;;;;;;;;;29.90;34.60;;;;;;4966462;28;19961;-78
2023/06/15 10:31:18;;;;;;;;;;;29.40;34.40;;;;;;4960525;28;20469;-78
2023/06/15 10:33:49;;;;;;;;;;;29.50;34.90;;;;;;4960792;28;19938;-78
2023/06/15 10:36:16;;;;;;;;;;;29.60;34.70;;;;;;4957943;28;19926;-78
2023/06/15 10:39:03;;;;;;;;;;;29.90;33.80;;;;;;4963600;28;20532;-78
2023/06/15 10:41:30;;;;;;;;;;;30.10;34.90;;;;;;4954480;28;19926;-78
2023/06/15 10:44:00;;;;;;;;;;;30.40;34.70;;;;;;4964865;28;19946;-78
2023/06/15 10:46:33;;;;;;;;;;;30.40;34.10;;;;;;4963587;28;19929;-78
2023/06/15 10:49:03;;;;;;;;;;;29.90;34.10;;;;;;4963953;28;19936;-78
2023/06/15 10:51:35;;;;;;;;;;;29.90;33.80;;;;;;4964194;28;19936;-78
2023/06/15 10:54:03;;;;;;;;;;;29.30;33.40;;;;;;4964683;28;19930;-77
2023/06/15 10:56:30;;;;;;;;;;;28.90;34.10;;;;;;4946704;28;20024;-78
2023/06/15 10:58:59;;;;;;;;;;;29.10;33.90;;;;;;4964134;28;19965;-78
2023/06/15 11:01:33;;;;;;;;;;;28.60;34.00;;;;;;4960943;28;20041;-78
2023/06/15 11:04:01;;;;;;;;;;;28.20;35.40;;;;;;4947840;28;19933;-78
2023/06/15 11:06:38;;;;;;;;;;;28.10;36.50;;;;;;4948762;28;19930;-78
2023/06/15 11:09:15;;;;;;;;;;;27.70;35.50;;;;;;4969058;28;20576;-78
2023/06/15 11:11:45;;;;;;;;;;;27.50;37.70;;;;;;4964067;28;20430;-78
2023/06/15 11:14:23;;;;;;;;;;;28.20;38.00;;;;;;4961202;28;19989;-78
2023/06/15 11:17:03;;;;;;;;;;;28.80;36.60;;;;;;4961063;28;20419;-78
2023/06/15 11:19:30;;;;;;;;;;;29.20;34.80;;;;;;4965520;28;20004;-78
2023/06/15 11:22:01;;;;;;;;;;;29.10;34.90;;;;;;4966144;28;19953;-78
2023/06/15 11:24:41;;;;;;;;;;;29.20;36.10;;;;;;4965233;28;20379;-78
2023/06/15 11:27:09;;;;;;;;;;;29.40;33.40;;;;;;4964217;28;20021;-78
2023/06/15 11:29:37;;;;;;;;;;;29.20;35.20;;;;;;4963017;28;19973;-78
2023/06/15 11:32:04;;;;;;;;;;;28.90;35.20;;;;;;4963059;28;19926;-77
2023/06/15 11:34:31;;;;;;;;;;;29.30;34.80;;;;;;4944527;28;19930;-77
2023/06/15 11:36:59;;;;;;;;;;;29.30;36.80;;;;;;4964096;28;19930;-78
2023/06/15 11:39:26;;;;;;;;;;;29.80;34.50;;;;;;4961822;28;19968;-79
2023/06/15 11:41:53;;;;;;;;;;;30.20;35.10;;;;;;4965925;28;19938;-79
2023/06/15 11:44:25;;;;;;;;;;;30.30;34.80;;;;;;4964534;28;19930;-78
2023/06/15 11:46:56;;;;;;;;;;;30.60;35.90;;;;;;4948493;28;19930;-78
2023/06/15 11:49:23;;;;;;;;;;;31.00;34.50;;;;;;4948116;28;19948;-78
2023/06/15 11:51:52;;;;;;;;;;;31.30;34.30;;;;;;4964066;28;19977;-79
2023/06/15 11:54:23;;;;;;;;;;;31.40;33.00;;;;;;4969183;28;19941;-78
2023/06/15 11:57:06;;;;;;;;;;;31.10;32.50;;;;;;4955204;28;19930;-78
2023/06/15 11:59:35;;;;;;;;;;;30.60;32.20;;;;;;4969573;28;19937;-78
2023/06/15 12:02:03;;;;;;;;;;;30.10;32.10;;;;;;4966810;28;20698;-77
2023/06/15 12:04:30;;;;;;;;;;;29.70;32.80;;;;;;4968019;28;20017;-77
2023/06/15 12:06:59;;;;;;;;;;;28.80;33.60;;;;;;4968151;28;19973;-78
2023/06/15 12:09:25;;;;;;;;;;;28.50;34.60;;;;;;4967576;28;19941;-79
2023/06/15 12:11:52;;;;;;;;;;;28.30;34.20;;;;;;4964854;28;19936;-78
2023/06/15 12:14:23;;;;;;;;;;;27.80;34.00;;;;;;4967752;28;19934;-78
2023/06/15 12:16:51;;;;;;;;;;;27.60;34.20;;;;;;4963861;28;19934;-78
2023/06/15 12:19:19;;;;;;;;;;;27.30;34.90;;;;;;4966323;28;19933;-78
2023/06/15 12:21:46;;;;;;;;;;;27.30;34.60;;;;;;4966268;28;20000;-78
2023/06/15 12:24:14;;;;;;;;;;;27.20;35.30;;;;;;4968799;28;19937;-78
2023/06/15 12:26:41;;;;;;;;;;;27.00;36.10;;;;;;4968064;28;19930;-79
2023/06/15 12:29:18;;;;;;;;;;;26.90;35.80;;;;;;4968707;28;20049;-78
2023/06/15 12:31:48;;;;;;;;;;;26.80;35.80;;;;;;4950266;28;20530;-78
2023/06/15 12:34:19;;;;;;;;;;;26.60;36.70;;;;;;4950779;28;19941;-78
2023/06/15 12:36:45;;;;;;;;;;;26.50;36.00;;;;;;4966655;28;20017;-78
2023/06/15 12:39:13;;;;;;;;;;;26.50;37.10;;;;;;4966234;28;19930;-78
2023/06/15 12:41:41;;;;;;;;;;;26.30;37.70;;;;;;4965936;28;20462;-78
2023/06/15 12:44:11;;;;;;;;;;;26.20;37.40;;;;;;4967857;28;20037;-78
2023/06/15 12:46:39;;;;;;;;;;;26.20;37.40;;;;;;4950648;28;20045;-78
2023/06/15 12:49:07;;;;;;;;;;;26.10;37.20;;;;;;4947602;28;21403;-78
2023/06/15 12:51:34;;;;;;;;;;;25.90;37.50;;;;;;4965385;28;20073;-78
2023/06/15 12:54:04;;;;;;;;;;;25.80;37.70;;;;;;4967733;28;19934;-78
2023/06/15 12:56:32;;;;;;;;;;;25.90;37.80;;;;;;4950643;28;20016;-78
2023/06/15 12:58:58;;;;;;;;;;;26.00;38.50;;;;;;4949720;28;19926;-78
2023/06/15 13:01:25;;;;;;;;;;;26.40;38.40;;;;;;4967462;28;19930;-78
2023/06/15 13:03:52;;;;;;;;;;;26.80;37.90;;;;;;4967202;28;19930;-78
2023/06/15 13:06:19;;;;;;;;;;;26.90;37.70;;;;;;4949586;28;19985;-78
2023/06/15 13:08:46;;;;;;;;;;;27.30;38.10;;;;;;4969997;28;19934;-78
2023/06/15 13:11:13;;;;;;;;;;;27.80;37.10;;;;;;4966493;28;19937;-78
2023/06/15 13:13:39;;;;;;;;;;;27.80;36.70;;;;;;4967426;28;20470;-78
2023/06/15 13:16:06;;;;;;;;;;;27.70;37.10;;;;;;4966324;28;19933;-78
2023/06/15 13:18:33;;;;;;;;;;;27.50;37.50;;;;;;4965876;28;19985;-78
2023/06/15 13:21:00;;;;;;;;;;;27.40;37.10;;;;;;4965188;28;19934;-78
2023/06/15 13:23:27;;;;;;;;;;;27.10;37.50;;;;;;4960904;28;19937;-78
2023/06/15 13:25:54;;;;;;;;;;;26.90;37.90;;;;;;4963435;28;20378;-79
2023/06/15 13:28:20;;;;;;;;;;;26.80;38.70;;;;;;4966651;28;19981;-78
2023/06/15 13:30:47;;;;;;;;;;;26.50;39.30;;;;;;4967047;28;19985;-79
2023/06/15 13:33:15;;;;;;;;;;;26.50;39.30;;;;;;4964730;28;19961;-78
2023/06/15 13:35:43;;;;;;;;;;;26.10;39.80;;;;;;4957475;28;20386;-79
2023/06/15 13:38:09;;;;;;;;;;;26.10;40.20;;;;;;4970264;28;19984;-78
2023/06/15 13:40:36;;;;;;;;;;;26.20;40.70;;;;;;4948134;28;19937;-78
2023/06/15 13:43:03;;;;;;;;;;;26.30;40.10;;;;;;4963253;28;19930;-78
2023/06/15 13:45:32;;;;;;;;;;;26.20;40.00;;;;;;4965281;28;19930;-78
2023/06/15 13:47:59;;;;;;;;;;;26.40;41.70;;;;;;4964034;28;20020;-78
2023/06/15 13:50:27;;;;;;;;;;;26.70;39.50;;;;;;4960504;28;19977;-78
2023/06/15 13:52:54;;;;;;;;;;;26.70;38.90;;;;;;4946906;28;19942;-78
2023/06/15 13:55:20;;;;;;;;;;;26.80;37.60;;;;;;4964750;28;20458;-77
2023/06/15 13:57:47;;;;;;;;;;;26.90;38.90;;;;;;4965820;28;19930;-78
2023/06/15 14:00:14;;;;;;;;;;;26.80;38.10;;;;;;4945309;28;19926;-79
2023/06/15 14:02:44;;;;;;;;;;;26.60;37.50;;;;;;4960459;28;19930;-79
2023/06/15 14:05:13;;;;;;;;;;;26.40;37.90;;;;;;4947479;28;19977;-80
2023/06/15 14:07:40;;;;;;;;;;;26.20;37.60;;;;;;4962647;28;20318;-80
2023/06/15 14:10:07;;;;;;;;;;;26.00;37.70;;;;;;4965947;28;20505;-80
2023/06/15 14:12:35;;;;;;;;;;;25.90;39.10;;;;;;4961600;28;20395;-78
2023/06/15 14:15:02;;;;;;;;;;;25.90;40.10;;;;;;4964449;28;20084;-78
2023/06/15 14:17:29;;;;;;;;;;;25.90;40.00;;;;;;4943534;28;19966;-78
2023/06/15 14:19:57;;;;;;;;;;;25.70;39.80;;;;;;4964422;28;19934;-78
2023/06/15 14:22:23;;;;;;;;;;;25.70;40.00;;;;;;4945353;28;20019;-78
2023/06/15 14:24:50;;;;;;;;;;;25.60;40.10;;;;;;4965363;28;19936;-78
2023/06/15 14:27:17;;;;;;;;;;;25.60;40.40;;;;;;4966127;28;20084;-78